Alton, IN

11:30 AM EDT on September 02, 2014 (GMT -0400)
k9set Harrison county skywarn | Change Station
CLOSE
Current Station
Personal Weather Station
Location: corydon, IN
Elevation: 649 ft
Nearby Weather Stations

Elev 649 ft 38.21 °N, 86.11 °W | Updated 6 seconds ago

Mostly Cloudy
Mostly Cloudy
73.7 °F
Feels Like 70 °F
N
1.0
Wind Variable Wind from SW
Gusts 10.0 mph

Today
High -- | Low -- °F
--% Chance of Precip.
Yesterday
High -- | Low -- °F
Precip. -- in
7:15 AM 8:13 PM
First Quarter, 52% visible
Pressure 29.99 in
Visibility 10.0 miles
Clouds Scattered Clouds 3900 ft
Mostly Cloudy 4700 ft
Mostly Cloudy 5500 ft
Heat Index 70 °F
Dew Point 72 °F
Humidity 95%
Rainfall 0.42 in
Snow Depth Not available.
UV 3 out of 12
Pollen 8.60 out of 12
Ozone Good
PM2.5 Good
Flu Activity Not available.
METAR KFTK 021458Z AUTO 17006KT 10SM SCT039 BKN047 BKN055 23/23 A3000 RMK AO2 SLP155 60020 T02320232 58003

More Conditions Fewer Conditions

Pressure 29.99 in
Visibility 10.0 miles
Clouds Scattered Clouds 3900 ft
Mostly Cloudy 4700 ft
Mostly Cloudy 5500 ft
Heat Index 70 °F
Dew Point 72 °F
Humidity 95%
Rainfall 0.42 in
Snow Depth Not available.
UV 3 out of 12
Pollen 8.60 out of 12
Ozone Good
PM2.5 Good
Flu Activity Not available.
METAR KFTK 021458Z AUTO 17006KT 10SM SCT039 BKN047 BKN055 23/23 A3000 RMK AO2 SLP155 60020 T02320232 58003

More Conditions Fewer Conditions

10-Day Weather Forecast

Almanac

Astronomy

Sep. 02, 2014 Rise Set
Actual Time 7:15 AM EDT 8:13 PM EDT
Civil Twilight 6:48 AM EDT 8:40 PM EDT
Nautical Twilight 6:16 AM EDT 9:12 PM EDT
Astronomical Twilight 5:43 AM EDT 9:45 PM EDT
Moon 2:53 PM EDT 12:21 AM EDT
Length of Visible Light 13h 51m
Length of Day
12h 57m
Tomorrow will be 2m 22s shorter.
First Quarter, 52% of the Moon is Illuminated
Today
First Quarter
Sep 8
Full
Sep 15
Last Quarter
Sep 24
New
Oct 1
First Quarter

Today's Extremes

State Highs State Lows

Community

WunderPhotos

Upload Photos

1,749,700 photos uploaded!

Nearby

Air Quality

  Air Quality AQ Index Pollutant
Yesterday Good
PM10
Yesterday Good
OZONE
Current Good
PM2.5
Current Good
OZONE
Tuesday Moderate
PM2.5
Tuesday Good
OZONE

Snow Depth

Station Depth Elevation
No new snow has been reported.

Earthquake Activity

City Distance Mag. Time & Date
No recent earthquake activity has been reported nearby.
Minimum magnitude displayed is 2.5.

Coastal Water Temperatures

Place Temperature
No Stations Reporting

Nearby Weather Stations